Terminal Aerodrome Forecast
Issued by NWS Bismarck, ND

Home | Current Version | Previous Version | Text Only | Print | Product List | Glossary On
Versions: 1 2 3 4 5 6 7 8 9 10 11 12 13 14 15 16
000
FTUS43 KBIS 212339
TAFISN
TAF
KISN 212339Z 2200/2224 VRB04KT P6SM SCT250
     FM220900 32006KT P6SM SCT250
     FM221200 33007KT P6SM BKN200
     FM221500 36008KT P6SM SCT050 BKN090
     FM222200 04009KT P6SM OVC060=

USA.gov is the U.S. government's official web portal to all federal, state and local government web resources and services.